地図

経路データ

SID SEASON NUMBER BASIN SUBBASIN NAME ISO_TIME NATURE LAT LON WMO_WIND WMO_PRES WMO_AGENCY TRACK_TYPE DIST2LAND LANDFALL IFLAG USA_AGENCY USA_ATCF_ID USA_LAT USA_LON USA_RECORD USA_STATUS USA_WIND USA_PRES USA_SSHS USA_R34_NE USA_R34_SE USA_R34_SW USA_R34_NW USA_R50_NE USA_R50_SE USA_R50_SW USA_R50_NW USA_R64_NE USA_R64_SE USA_R64_SW USA_R64_NW USA_POCI USA_ROCI USA_RMW USA_EYE TOKYO_LAT TOKYO_LON TOKYO_GRADE TOKYO_WIND TOKYO_PRES TOKYO_R50_DIR TOKYO_R50_LONG TOKYO_R50_SHORT TOKYO_R30_DIR TOKYO_R30_LONG TOKYO_R30_SHORT TOKYO_LAND CMA_LAT CMA_LON CMA_CAT CMA_WIND CMA_PRES HKO_LAT HKO_LON HKO_CAT HKO_WIND HKO_PRES NEWDELHI_LAT NEWDELHI_LON NEWDELHI_GRADE NEWDELHI_WIND NEWDELHI_PRES NEWDELHI_CI NEWDELHI_DP NEWDELHI_POCI REUNION_LAT REUNION_LON REUNION_TYPE REUNION_WIND REUNION_PRES REUNION_TNUM REUNION_CI REUNION_RMW REUNION_R34_NE REUNION_R34_SE REUNION_R34_SW REUNION_R34_NW REUNION_R50_NE REUNION_R50_SE REUNION_R50_SW REUNION_R50_NW REUNION_R64_NE REUNION_R64_SE REUNION_R64_SW REUNION_R64_NW BOM_LAT BOM_LON BOM_TYPE BOM_WIND BOM_PRES BOM_TNUM BOM_CI BOM_RMW BOM_R34_NE BOM_R34_SE BOM_R34_SW BOM_R34_NW BOM_R50_NE BOM_R50_SE BOM_R50_SW BOM_R50_NW BOM_R64_NE BOM_R64_SE BOM_R64_SW BOM_R64_NW BOM_ROCI BOM_POCI BOM_EYE BOM_POS_METHOD BOM_PRES_METHOD NADI_LAT NADI_LON NADI_CAT NADI_WIND NADI_PRES WELLINGTON_LAT WELLINGTON_LON WELLINGTON_WIND WELLINGTON_PRES DS824_LAT DS824_LON DS824_STAGE DS824_WIND DS824_PRES TD9636_LAT TD9636_LON TD9636_STAGE TD9636_WIND TD9636_PRES TD9635_LAT TD9635_LON TD9635_WIND TD9635_PRES TD9635_ROCI NEUMANN_LAT NEUMANN_LON NEUMANN_CLASS NEUMANN_WIND NEUMANN_PRES MLC_LAT MLC_LON MLC_CLASS MLC_WIND MLC_PRES USA_GUST BOM_GUST BOM_GUST_PER REUNION_GUST REUNION_GUST_PER USA_SEAHGT USA_SEARAD_NE USA_SEARAD_SE USA_SEARAD_SW USA_SEARAD_NW STORM_SPEED STORM_DIR
1965242N17252 1965 85 EP MM EMILY 1965-08-30 00:00:00 TS 17.0000 -108.400 45 hurdat_epa main 445 424 O________OO___ hurdat_epa EP071965 17.0000 -108.400 TS 45 0 17.0000 -108.400 TC 45 17.0000 -108.400 2 11 338
1965242N17252 1965 85 EP MM EMILY 1965-08-30 03:00:00 TS 17.5047 -108.606 main 426 412 P________PP___ EP071965 17.5100 -108.605 TS 45 0 17.5100 -108.605 TC 45 17.4831 -108.613 2 11 339
1965242N17252 1965 85 EP MM EMILY 1965-08-30 06:00:00 TS 17.9926 -108.802 45 hurdat_epa main 412 399 O________OP___ hurdat_epa EP071965 18.0000 -108.800 TS 45 0 18.0000 -108.800 TC 45 17.9629 -108.811 2 10 340
1965242N17252 1965 85 EP MM EMILY 1965-08-30 09:00:00 TS 18.4532 -108.974 main 403 393 P________PP___ EP071965 18.4575 -108.973 TS 45 0 18.4575 -108.973 TC 45 18.4362 -108.979 2 10 343
1965242N17252 1965 85 EP MM EMILY 1965-08-30 12:00:00 TS 18.9000 -109.100 45 hurdat_epa main 393 380 O________OO___ hurdat_epa EP071965 18.9000 -109.100 TS 45 0 18.9000 -109.100 TC 45 18.9000 -109.100 2 9 349
1965242N17252 1965 85 EP MM EMILY 1965-08-30 15:00:00 TS 19.3563 -109.165 main 382 352 P________PP___ EP071965 19.3575 -109.165 TS 45 0 19.3575 -109.165 TC 45 19.3514 -109.167 2 9 354
1965242N17252 1965 85 EP MM EMILY 1965-08-30 18:00:00 TS 19.7974 -109.200 45 hurdat_epa main 352 308 O________OP___ hurdat_epa EP071965 19.8000 -109.200 TS 45 0 19.8000 -109.200 TC 45 19.7872 -109.201 2 9 355
1965242N17252 1965 85 EP MM EMILY 1965-08-30 21:00:00 TS 20.2129 -109.241 main 308 262 P________PP___ EP071965 20.2150 -109.243 TS 45 0 20.2150 -109.243 TC 45 20.2045 -109.235 2 8 353
1965242N17252 1965 85 EP MM EMILY 1965-08-31 00:00:00 TS 20.6000 -109.300 45 hurdat_epa main 262 227 O________OO___ hurdat_epa EP071965 20.6000 -109.300 TS 45 0 20.6000 -109.300 TC 45 20.6000 -109.300 2 8 350
1965242N17252 1965 85 EP MM EMILY 1965-08-31 03:00:00 TS 20.9610 -109.375 main 216 181 P________PP___ EP071965 20.9574 -109.370 TS 45 0 20.9574 -109.370 TC 45 20.9752 -109.395 2 7 345
1965242N17252 1965 85 EP MM EMILY 1965-08-31 06:00:00 TS 21.3059 -109.506 45 hurdat_epa main 181 145 O________OP___ hurdat_epa EP071965 21.3000 -109.500 TS 45 0 21.3000 -109.500 TC 45 21.3293 -109.531 2 8 336
1965242N17252 1965 85 EP MM EMILY 1965-08-31 09:00:00 TS 21.6536 -109.703 main 134 100 P________PP___ EP071965 21.6499 -109.698 TS 62 0 21.6499 -109.698 TC 62 21.6687 -109.727 2 8 326
1965242N17252 1965 85 EP MM EMILY 1965-08-31 12:00:00 TS 22.0000 -110.000 80 hurdat_epa main 100 73 O________OO___ hurdat_epa EP071965 22.0000 -110.000 HU 80 1 22.0000 -110.000 TC 80 22.0000 -110.000 4 10 317
1965242N17252 1965 85 EP MM EMILY 1965-08-31 15:00:00 TS 22.3567 -110.414 main 69 68 P________PP___ EP071965 22.3576 -110.420 HU 77 1 22.3576 -110.420 TC 77 22.3533 -110.390 4 11 310
1965242N17252 1965 85 EP MM EMILY 1965-08-31 18:00:00 TS 22.6992 -110.891 75 hurdat_epa main 94 94 O________OP___ hurdat_epa EP071965 22.7000 -110.900 HU 75 1 22.7000 -110.900 TC 75 22.6961 -110.854 4 11 307
1965242N17252 1965 85 EP MM EMILY 1965-08-31 21:00:00 TS 23.0211 -111.360 main 113 105 P________PP___ EP071965 23.0225 -111.365 HU 75 1 23.0225 -111.365 TC 75 23.0158 -111.340 4 10 306
1965242N17252 1965 85 EP MM EMILY 1965-09-01 00:00:00 TS 23.3000 -111.800 75 hurdat_epa main 114 112 O________OO___ hurdat_epa EP071965 23.3000 -111.800 HU 75 1 23.3000 -111.800 TC 75 23.3000 -111.800 2 9 304
1965242N17252 1965 85 EP MM EMILY 1965-09-01 03:00:00 TS 23.5181 -112.172 main 117 108 P________PP___ EP071965 23.5149 -112.173 HU 75 1 23.5149 -112.173 TC 75 23.5313 -112.170 2 8 302
1965242N17252 1965 85 EP MM EMILY 1965-09-01 06:00:00 TS 23.7059 -112.501 75 hurdat_epa main 114 108 O________OP___ hurdat_epa EP071965 23.7000 -112.500 HU 75 1 23.7000 -112.500 TC 75 23.7293 -112.504 2 7 303
1965242N17252 1965 85 EP MM EMILY 1965-09-01 09:00:00 TS 23.8965 -112.808 main 114 112 P________PP___ EP071965 23.8924 -112.808 HU 60 0 23.8924 -112.808 TC 60 23.9127 -112.811 2 7 306
1965242N17252 1965 85 EP MM EMILY 1965-09-01 12:00:00 TS 24.1000 -113.100 45 hurdat_epa main 120 120 O________OO___ hurdat_epa EP071965 24.1000 -113.100 TS 45 0 24.1000 -113.100 TC 45 24.1000 -113.100 2 7 310
1965242N17252 1965 85 EP MM EMILY 1965-09-01 15:00:00 TS 24.3484 -113.406 main 133 129 P________PP___ EP071965 24.3500 -113.407 TS 45 0 24.3500 -113.407 TC 45 24.3420 -113.401 2 7 312
1965242N17252 1965 85 EP MM EMILY 1965-09-01 18:00:00 TS 24.5975 -113.697 45 hurdat_epa main 153 153 O________OP___ hurdat_epa EP071965 24.6000 -113.700 TS 45 0 24.6000 -113.700 TC 45 24.5873 -113.687 2 7 313
1965242N17252 1965 85 EP MM EMILY 1965-09-01 21:00:00 TS 24.8207 -113.957 main 181 181 P________PP___ EP071965 24.8224 -113.958 TS 45 0 24.8224 -113.958 TC 45 24.8140 -113.954 2 6 311
1965242N17252 1965 85 EP MM EMILY 1965-09-02 00:00:00 TS 25.0000 -114.200 45 hurdat_epa main 199 191 O________OO___ hurdat_epa EP071965 25.0000 -114.200 TS 45 0 25.0000 -114.200 TC 45 25.0000 -114.200 2 5 303
1965242N17252 1965 85 EP MM EMILY 1965-09-02 03:00:00 TS 25.1184 -114.459 main 200 195 P________PP___ EP071965 25.1225 -114.465 TS 45 0 25.1225 -114.465 TC 45 25.1017 -114.434 2 5 294
1965242N17252 1965 85 EP MM EMILY 1965-09-02 06:00:00 TS 25.1930 -114.689 45 hurdat_epa main 200 200 O________OP___ hurdat_epa EP071965 25.2000 -114.700 TS 45 0 25.2000 -114.700 TC 45 25.1648 -114.646 2 4 288
1965242N17252 1965 85 EP MM EMILY 1965-09-02 09:00:00 TS 25.2381 -114.865 main 211 203 P________PP___ EP071965 25.2424 -114.873 TS 45 0 25.2424 -114.873 TC 45 25.2205 -114.834 2 3 291
1965242N17252 1965 85 EP MM EMILY 1965-09-02 12:00:00 TS 25.3000 -115.000 45 hurdat_epa main 209 208 O________OO___ hurdat_epa EP071965 25.3000 -115.000 TS 45 0 25.3000 -115.000 TC 45 25.3000 -115.000 2 3 311
1965242N17252 1965 85 EP MM EMILY 1965-09-02 15:00:00 TS 25.4320 -115.109 main 208 194 P________PP___ EP071965 25.4275 -115.100 TS 45 0 25.4275 -115.100 TC 45 25.4502 -115.147 2 4 327
1965242N17252 1965 85 EP MM EMILY 1965-09-02 18:00:00 TS 25.6055 -115.215 45 hurdat_epa main 194 180 O________OP___ hurdat_epa EP071965 25.6000 -115.200 TS 45 0 25.6000 -115.200 TC 45 25.6273 -115.273 2 4 329
1965242N17252 1965 85 EP MM EMILY 1965-09-02 21:00:00 TS 25.8032 -115.357 main 185 172 P________PP___ EP071965 25.8000 -115.350 TS 45 0 25.8000 -115.350 TC 45 25.8158 -115.387 2 5 327
1965242N17252 1965 85 EP MM EMILY 1965-09-03 00:00:00 TS 26.0000 -115.500 45 hurdat_epa main 172 164 O________OO___ hurdat_epa EP071965 26.0000 -115.500 TS 45 0 26.0000 -115.500 TC 45 26.0000 -115.500 2 4 328
1965242N17252 1965 85 EP MM EMILY 1965-09-03 03:00:00 TS 26.1550 -115.604 main 163 163 P________PP___ EP071965 26.1575 -115.600 TS 35 0 26.1575 -115.600 TC 35 26.1449 -115.621 2 4 328
1965242N17252 1965 85 EP MM EMILY 1965-09-03 06:00:00 TS 26.2970 -115.709 25 hurdat_epa main 163 163 O________OP___ hurdat_epa EP071965 26.3000 -115.700 TD 25 -1 26.3000 -115.700 TC 25 26.2849 -115.743 2 4 323
1965242N17252 1965 85 EP MM EMILY 1965-09-03 09:00:00 TS 26.4405 -115.848 main 165 157 P________PP___ EP071965 26.4425 -115.843 TD 25 -1 26.4425 -115.843 TC 25 26.4324 -115.868 2 4 319
1965242N17252 1965 85 EP MM EMILY 1965-09-03 12:00:00 TS 26.6000 -116.000 25 hurdat_epa main 157 147 O________OO___ hurdat_epa EP071965 26.6000 -116.000 TD 25 -1 26.6000 -116.000 TC 25 26.6000 -116.000 6 4 322
1965242N17252 1965 85 EP MM EMILY 1965-09-03 15:00:00 TS 26.7903 -116.152 main 155 148 P________PP___ EP071965 26.7850 -116.150 TD 25 -1 26.7850 -116.150 TC 25 26.8116 -116.159 6 5 326
1965242N17252 1965 85 EP MM EMILY 1965-09-03 18:00:00 TS 27.0085 -116.304 25 hurdat_epa main 150 144 O________OP___ hurdat_epa EP071965 27.0000 -116.300 TD 25 -1 27.0000 -116.300 TC 25 27.0426 -116.322 6 6 329
1965242N17252 1965 85 EP MM EMILY 1965-09-03 21:00:00 TS 27.2615 -116.467 main 154 151 P________PP___ EP071965 27.2575 -116.465 TD 25 -1 27.2575 -116.465 TC 25 27.2773 -116.474 6 6 332
1965242N17252 1965 85 EP MM EMILY 1965-09-04 00:00:00 TS 27.5000 -116.600 25 hurdat_epa main 159 157 O________OO___ hurdat_epa EP071965 27.5000 -116.600 TD 25 -1 27.5000 -116.600 TC 25 27.5000 -116.600 6 4 336
1965242N17252 1965 85 EP MM EMILY 1965-09-04 03:00:00 TS 27.6658 -116.670 main 167 167 P________PP___ EP071965 27.6575 -116.665 TD 25 -1 27.6575 -116.665 TC 25 27.6990 -116.687 6 3 343
1965242N17252 1965 85 EP MM EMILY 1965-09-04 06:00:00 TS 27.8122 -116.707 25 hurdat_epa main 167 167 O________OP___ hurdat_epa EP071965 27.8000 -116.700 TD 25 -1 27.8000 -116.700 TC 25 27.8774 -116.743 6 3 347
1965242N17252 1965 85 EP MM EMILY 1965-09-04 09:00:00 TS 27.9980 -116.753 main 178 178 P________PP___ EP071965 27.9925 -116.750 TD 25 -1 27.9925 -116.750 TC 25 28.0421 -116.777 6 4 349
1965242N17252 1965 85 EP MM EMILY 1965-09-04 12:00:00 TS 28.2000 -116.800 25 hurdat_epa main 182 182 O________OO___ hurdat_epa EP071965 28.2000 -116.800 TD 25 -1 28.2000 -116.800 TC 25 28.2000 -116.800 6 4 348
1965242N17252 1965 85 EP MM EMILY 1965-09-04 15:00:00 TS 28.4000 -116.850 main 194 177 P________P____ EP071965 28.4000 -116.850 TD 25 -1 28.4000 -116.850 TC 25 6 4 348
1965242N17252 1965 85 EP MM EMILY 1965-09-04 18:00:00 MX 28.6000 -116.900 25 hurdat_epa main 177 161 O________O____ hurdat_epa EP071965 28.6000 -116.900 TD 25 -1 28.6000 -116.900 25 6 4 347
1965242N17252 1965 85 EP MM EMILY 1965-09-04 21:00:00 MX 28.7700 -116.950 main 168 153 P________P____ EP071965 28.7700 -116.950 TD 25 -1 28.7700 -116.950 25 6 4 348
1965242N17252 1965 85 EP MM EMILY 1965-09-05 00:00:00 MX 29.0000 -117.000 25 hurdat_epa main 153 133 O________O____ hurdat_epa EP071965 29.0000 -117.000 TD 25 -1 29.0000 -117.000 25 6 351
1965242N17252 1965 85 EP MM EMILY 1965-09-05 03:00:00 MX 29.4000 -117.057 main 137 125 P________P____ EP071965 29.4000 -117.057 TD 25 -1 29.4000 -117.057 25 8 354
1965242N17252 1965 85 EP MM EMILY 1965-09-05 06:00:00 MX 29.8000 -117.100 25 hurdat_epa main 125 114 O________O____ hurdat_epa EP071965 29.8000 -117.100 TD 25 -1 29.8000 -117.100 25 6 353
1965242N17252 1965 85 EP MM EMILY 1965-09-05 09:00:00 MX 30.0074 -117.137 main 114 107 P________P____ EP071965 30.0074 -117.137 TD 25 -1 30.0074 -117.137 25 4 0
1965242N17252 1965 85 EP MM EMILY 1965-09-05 12:00:00 MX 30.2000 -117.100 25 hurdat_epa main 107 79 O________O____ hurdat_epa EP071965 30.2000 -117.100 TD 25 -1 30.2000 -117.100 25 6 18
1965242N17252 1965 85 EP MM EMILY 1965-09-05 15:00:00 MX 30.5350 -116.938 main 79 39 P________P____ EP071965 30.5350 -116.938 TD 25 -1 30.5350 -116.938 25 8 26
1965242N17252 1965 85 EP MM EMILY 1965-09-05 18:00:00 MX 30.9000 -116.700 25 hurdat_epa main 39 9 O________O____ hurdat_epa EP071965 30.9000 -116.700 TD 25 -1 30.9000 -116.700 25 8 32
1965242N17252 1965 85 EP MM EMILY 1965-09-05 21:00:00 MX 31.2150 -116.450 main 0 0 P________P____ EP071965 31.2150 -116.450 TD 25 -1 31.2150 -116.450 25 7 36
1965242N17252 1965 85 EP MM EMILY 1965-09-06 00:00:00 MX 31.5000 -116.200 25 hurdat_epa main 0 0 O________O____ hurdat_epa EP071965 31.5000 -116.200 TD 25 -1 31.5000 -116.200 25 7 36
1965242N17252 1965 85 EP MM EMILY 1965-09-06 03:00:00 MX 31.7575 -115.985 main 0 0 P________P____ EP071965 31.7575 -115.985 TD 25 -1 31.7575 -115.985 25 6 34
1965242N17252 1965 85 EP MM EMILY 1965-09-06 06:00:00 MX 32.0000 -115.800 25 hurdat_epa main 0 0 O________O____ hurdat_epa EP071965 32.0000 -115.800 TD 25 -1 32.0000 -115.800 25 6 31
1965242N17252 1965 85 EP MM EMILY 1965-09-06 09:00:00 MX 32.2475 -115.643 main 0 0 P________P____ EP071965 32.2475 -115.643 TD 25 -1 32.2475 -115.643 25 6 27
1965242N17252 1965 85 EP MM EMILY 1965-09-06 12:00:00 MX 32.5000 -115.500 25 hurdat_epa main 0 O________O____ hurdat_epa EP071965 32.5000 -115.500 TD 25 -1 32.5000 -115.500 25 6 26

IBTrACS Databaseについて

本データベースは、米国NOAAが公開する1842年以降の世界の熱帯低気圧のベストトラックデータアーカイブInternational Best Track Archive for Climate Stewardship (IBTrACS)を、ウェブで閲覧しやすい形式に変換したものです。

最終更新日:2021-10-21